Time;durP1;ratioP1;P1;durP2;ratioP2;P2;SDS_P1;SDS_P2;PMS_P1;PMS_P2;Temp;Humidity;BMP_temperature;BMP_pressure;BME280_temperature;BME280_humidity;BME280_pressure;Samples;Min_cycle;Max_cycle;Signal;HPM_P1;HPM_P2
2023/08/29 00:01:57;;;;;;;4.38;1.90;;;;;;;16.02;71.88;98275.72;5005252;28;20022;-84
2023/08/29 00:04:22;;;;;;;3.28;1.40;;;;;;;16.44;70.23;98259.28;4984988;28;20030;-84
2023/08/29 00:06:48;;;;;;;3.40;1.73;;;;;;;16.36;70.54;98265.34;4972602;28;20425;-84
2023/08/29 00:09:13;;;;;;;2.25;2.03;;;;;;;16.15;71.45;98287.59;4971745;28;20452;-84
2023/08/29 00:11:38;;;;;;;1.67;1.45;;;;;;;16.14;71.29;98284.09;4974147;28;20060;-83
2023/08/29 00:14:04;;;;;;;3.25;2.60;;;;;;;15.23;75.15;98287.50;4988392;28;20037;-84
2023/08/29 00:16:29;;;;;;;1.88;1.67;;;;;;;15.64;73.56;98283.09;4968253;28;20121;-84
2023/08/29 00:18:54;;;;;;;2.45;2.08;;;;;;;15.47;73.67;98303.56;4987473;28;20105;-84
2023/08/29 00:21:20;;;;;;;1.90;1.48;;;;;;;15.71;72.71;98286.22;4989475;28;20029;-83
2023/08/29 00:23:48;;;;;;;2.03;1.67;;;;;;;16.11;71.96;98298.16;5004463;28;20025;-83
2023/08/29 00:26:14;;;;;;;2.50;1.80;;;;;;;16.41;70.59;98296.78;4988004;28;20044;-84
2023/08/29 00:28:40;;;;;;;1.90;1.80;;;;;;;16.39;70.19;98302.47;4969312;28;20034;-84
2023/08/29 00:31:06;;;;;;;4.57;1.90;;;;;;;16.61;69.84;98317.16;5000176;28;20038;-84
2023/08/29 00:33:31;;;;;;;4.60;2.15;;;;;;;16.58;70.04;98304.31;4978019;28;20046;-84
2023/08/29 00:35:57;;;;;;;1.52;1.40;;;;;;;16.54;70.56;98295.22;4983319;28;20406;-84
2023/08/29 00:38:22;;;;;;;2.50;2.00;;;;;;;16.22;69.77;98237.66;5002459;28;20064;-84
2023/08/29 00:40:47;;;;;;;2.70;1.80;;;;;;;16.38;71.06;98311.63;4980658;28;20019;-83
2023/08/29 00:43:13;;;;;;;5.70;2.20;;;;;;;16.47;70.25;98311.75;4986315;28;20033;-84
2023/08/29 00:45:39;;;;;;;2.92;2.05;;;;;;;16.09;71.09;98303.06;4983351;28;20728;-83
2023/08/29 00:48:06;;;;;;;3.33;2.22;;;;;;;16.10;71.32;98310.03;4986220;28;20033;-84
2023/08/29 00:50:33;;;;;;;2.67;2.38;;;;;;;15.80;73.19;98328.59;4956848;28;20132;-83
2023/08/29 00:53:03;;;;;;;2.83;2.53;;;;;;;15.05;76.40;98312.50;4981558;28;20026;-83
2023/08/29 00:55:29;;;;;;;2.33;1.50;;;;;;;15.49;74.41;98317.53;5000095;28;20064;-83
2023/08/29 00:57:59;;;;;;;3.10;1.85;;;;;;;15.73;72.83;98296.69;4996638;28;20080;-83
2023/08/29 01:00:26;;;;;;;1.75;1.65;;;;;;;15.99;72.30;98289.75;4975169;28;20030;-83
2023/08/29 01:02:51;;;;;;;4.05;2.38;;;;;;;15.33;74.79;98291.94;4962442;28;20034;-83
2023/08/29 01:05:17;;;;;;;1.60;1.50;;;;;;;15.58;73.77;98281.59;4992394;28;20084;-82
2023/08/29 01:07:43;;;;;;;2.42;1.77;;;;;;;15.95;72.33;98288.75;4975996;28;20042;-83
2023/08/29 01:10:09;;;;;;;1.60;1.50;;;;;;;16.09;71.65;98278.03;4993888;28;20034;-83
2023/08/29 01:12:44;;;;;;;3.70;1.83;;;;;;;16.22;71.27;98283.44;4984198;28;20034;-83
2023/08/29 01:15:17;;;;;;;3.67;1.85;;;;;;;16.38;70.93;98305.47;4968486;28;20038;-84
2023/08/29 01:17:48;;;;;;;1.70;1.60;;;;;;;16.24;70.95;98292.00;4985949;28;20096;-84
2023/08/29 01:20:16;;;;;;;2.03;1.55;;;;;;;16.46;71.11;98315.56;4996913;28;20026;-84
2023/08/29 01:22:59;;;;;;;5.25;1.67;;;;;;;16.35;71.31;98308.75;4996108;28;20121;-83
2023/08/29 01:25:42;;;;;;;1.95;1.77;;;;;;;16.31;71.40;98297.78;4985382;28;20038;-83
2023/08/29 01:28:08;;;;;;;1.75;1.65;;;;;;;16.21;71.77;98314.13;4998082;28;20038;-84
2023/08/29 01:30:37;;;;;;;2.35;1.75;;;;;;;16.10;72.00;98290.38;4991111;28;20092;-83
2023/08/29 01:33:03;;;;;;;2.97;1.92;;;;;;;16.06;72.01;98309.03;5000169;28;20029;-83
2023/08/29 01:35:28;;;;;;;5.70;1.48;;;;;;;16.24;71.06;98302.78;4984630;28;20449;-83
2023/08/29 01:37:54;;;;;;;3.67;1.98;;;;;;;16.28;71.40;98319.13;4987227;28;20101;-83
2023/08/29 01:40:19;;;;;;;3.88;2.00;;;;;;;16.16;71.58;98316.91;4990301;28;20034;-83
2023/08/29 01:42:44;;;;;;;1.95;1.73;;;;;;;16.18;71.57;98300.47;4960919;28;20045;-83
2023/08/29 01:45:10;;;;;;;1.95;1.73;;;;;;;16.41;71.20;98299.47;4976809;28;20033;-83
2023/08/29 01:47:35;;;;;;;2.63;2.38;;;;;;;16.34;71.42;98302.56;5009554;28;20555;-83
2023/08/29 01:50:04;;;;;;;3.67;2.20;;;;;;;16.35;71.10;98309.56;4999373;28;20037;-83
2023/08/29 01:52:30;;;;;;;1.88;1.77;;;;;;;15.99;71.94;98295.16;4991971;28;20068;-83
2023/08/29 01:54:57;;;;;;;3.83;2.42;;;;;;;15.99;72.45;98300.53;4994136;28;20038;-83
2023/08/29 01:57:26;;;;;;;1.85;1.55;;;;;;;15.99;72.17;98305.91;4988839;28;20065;-83
2023/08/29 01:59:52;;;;;;;2.88;1.80;;;;;;;15.73;73.17;98300.19;4984411;28;20044;-83
2023/08/29 02:02:19;;;;;;;1.90;1.73;;;;;;;15.63;73.50;98294.16;5000351;28;20053;-84
2023/08/29 02:04:44;;;;;;;5.15;1.73;;;;;;;15.41;74.62;98297.44;5001545;28;20033;-83
2023/08/29 02:07:10;;;;;;;2.83;1.83;;;;;;;15.78;72.61;98285.84;4971117;28;20398;-84
2023/08/29 02:09:35;;;;;;;1.92;1.70;;;;;;;16.08;72.07;98293.38;4985663;28;20091;-84
2023/08/29 02:12:01;;;;;;;4.28;2.00;;;;;;;16.19;71.54;98307.44;4970975;28;20030;-83
2023/08/29 02:14:26;;;;;;;1.63;1.52;;;;;;;16.16;72.22;98308.81;4967376;28;20030;-83
2023/08/29 02:16:51;;;;;;;2.88;1.58;;;;;;;16.23;71.30;98295.78;4981887;28;20065;-84
2023/08/29 02:19:17;;;;;;;1.95;1.83;;;;;;;16.03;71.95;98298.84;4970612;28;20065;-84
2023/08/29 02:21:42;;;;;;;2.42;2.22;;;;;;;15.79;73.82;98294.72;4955769;28;20026;-83
2023/08/29 02:24:07;;;;;;;2.50;1.92;;;;;;;15.85;72.70;98304.28;4985358;28;20079;-83
2023/08/29 02:26:33;;;;;;;5.25;2.70;;;;;;;15.35;74.92;98290.56;4967959;28;20390;-83
2023/08/29 02:28:58;;;;;;;5.43;3.10;;;;;;;14.71;76.49;98234.78;4970315;28;20045;-83
2023/08/29 02:31:23;;;;;;;2.05;1.85;;;;;;;15.50;74.32;98300.31;4996855;28;20168;-83
2023/08/29 02:33:49;;;;;;;3.97;1.95;;;;;;;15.54;74.29;98295.94;5005978;28;20061;-83
2023/08/29 02:36:14;;;;;;;2.25;1.77;;;;;;;15.92;73.05;98310.09;4984400;28;21298;-83
2023/08/29 02:38:40;;;;;;;5.72;2.40;;;;;;;15.91;73.22;98303.91;4970051;28;20482;-83
2023/08/29 02:41:05;;;;;;;2.33;1.80;;;;;;;15.64;73.42;98295.75;4986754;28;20553;-83
2023/08/29 02:43:31;;;;;;;3.72;1.70;;;;;;;15.82;73.19;98305.69;4969906;28;20041;-83
2023/08/29 02:45:57;;;;;;;3.22;1.60;;;;;;;15.92;72.98;98293.94;5005932;28;20041;-83
2023/08/29 02:48:23;;;;;;;1.63;1.52;;;;;;;15.92;72.22;98280.50;4999383;28;20030;-83
2023/08/29 02:50:49;;;;;;;2.65;1.58;;;;;;;15.94;72.27;98286.38;5006090;28;20031;-83
2023/08/29 02:53:19;;;;;;;3.60;1.75;;;;;;;15.97;72.25;98301.91;4987449;28;20733;-84
2023/08/29 02:55:45;;;;;;;3.10;2.47;;;;;;;16.08;72.23;98311.41;5000844;28;20033;-83
2023/08/29 02:58:10;;;;;;;5.70;2.75;;;;;;;15.62;73.69;98309.50;4983400;28;20030;-83
2023/08/29 03:00:36;;;;;;;1.73;1.58;;;;;;;15.71;72.77;98280.03;4980118;28;20032;-83
2023/08/29 03:03:04;;;;;;;3.72;2.22;;;;;;;15.37;74.54;98292.94;4982067;28;20042;-83
2023/08/29 03:05:30;;;;;;;2.70;2.50;;;;;;;15.10;75.97;98293.63;4981973;28;20060;-83
2023/08/29 03:07:55;;;;;;;5.05;2.38;;;;;;;15.01;77.13;98292.66;4966104;28;20498;-82
2023/08/29 03:10:22;;;;;;;2.25;2.00;;;;;;;15.01;76.19;98273.84;4977928;28;20111;-83
2023/08/29 03:12:50;;;;;;;4.75;3.08;;;;;;;14.84;78.05;98284.31;4998953;28;21702;-82
2023/08/29 03:15:15;;;;;;;3.88;1.80;;;;;;;15.24;75.34;98278.38;4995654;28;20045;-83
2023/08/29 03:17:43;;;;;;;2.17;2.08;;;;;;;15.68;73.64;98254.50;4982916;28;20037;-83
2023/08/29 03:20:08;;;;;;;2.58;2.17;;;;;;;15.51;74.62;98256.16;4982915;28;20060;-82
2023/08/29 03:22:34;;;;;;;3.92;1.77;;;;;;;15.07;76.56;98245.03;5002038;28;20022;-82
2023/08/29 03:24:59;;;;;;;5.05;2.38;;;;;;;15.37;74.40;98248.03;4983459;28;20072;-83
2023/08/29 03:27:25;;;;;;;3.33;1.60;;;;;;;15.08;76.43;98230.47;4969652;28;21911;-83
2023/08/29 03:29:51;;;;;;;3.20;2.10;;;;;;;15.28;75.01;98206.78;4983825;28;20568;-82
2023/08/29 03:32:17;;;;;;;2.28;1.70;;;;;;;15.27;75.57;98204.34;4985675;28;20561;-82
2023/08/29 03:34:42;;;;;;;2.85;2.38;;;;;;;15.61;74.20;98210.28;4997504;28;20112;-83
2023/08/29 03:37:07;;;;;;;4.38;2.63;;;;;;;15.47;74.43;98204.06;4970237;28;20032;-82
2023/08/29 03:39:33;;;;;;;3.08;1.77;;;;;;;15.89;72.91;98211.91;4966888;28;20030;-83
2023/08/29 03:41:58;;;;;;;3.55;1.80;;;;;;;15.91;72.72;98212.41;4966294;28;20030;-83
2023/08/29 03:44:23;;;;;;;2.05;1.83;;;;;;;15.79;72.96;98193.25;4971619;28;20034;-83
2023/08/29 03:46:49;;;;;;;1.90;1.80;;;;;;;15.85;72.90;98202.84;4994383;28;20042;-83
2023/08/29 03:49:15;;;;;;;3.38;2.47;;;;;;;15.52;74.18;98193.22;4990094;28;20113;-82
2023/08/29 03:51:40;;;;;;;3.22;2.30;;;;;;;15.11;75.76;98192.28;4984268;28;20034;-82
2023/08/29 03:54:05;;;;;;;1.98;1.73;;;;;;;15.56;74.30;98196.91;4973917;28;20037;-83
2023/08/29 03:56:33;;;;;;;3.85;2.20;;;;;;;15.78;73.50;98207.81;4992648;28;20034;-83
2023/08/29 03:59:01;;;;;;;2.15;1.85;;;;;;;15.78;73.43;98199.72;4972083;28;20084;-82
2023/08/29 04:01:27;;;;;;;5.32;1.98;;;;;;;15.65;73.65;98197.81;4978058;28;20026;-83
2023/08/29 04:03:52;;;;;;;4.43;2.20;;;;;;;15.74;73.49;98220.25;4973048;28;20087;-83
2023/08/29 04:06:19;;;;;;;4.43;1.67;;;;;;;15.82;73.04;98206.09;4989900;28;20145;-83
2023/08/29 04:08:44;;;;;;;3.42;2.15;;;;;;;15.55;74.25;98225.69;5003018;28;20104;-83
2023/08/29 04:11:09;;;;;;;2.03;1.90;;;;;;;15.56;74.13;98216.53;4981536;28;20540;-83
2023/08/29 04:13:35;;;;;;;5.45;2.80;;;;;;;15.37;74.88;98236.47;4967492;28;20425;-83
2023/08/29 04:16:03;;;;;;;4.90;2.63;;;;;;;15.05;76.45;98223.78;4986404;28;20084;-84
2023/08/29 04:18:32;;;;;;;3.03;2.55;;;;;;;15.02;75.51;98217.13;4970818;28;20096;-84
2023/08/29 04:20:59;;;;;;;2.92;2.63;;;;;;;14.98;76.93;98236.81;4988137;28;20022;-83
2023/08/29 04:23:24;;;;;;;5.57;2.90;;;;;;;14.65;77.73;98221.72;4989081;28;20470;-85
2023/08/29 04:25:50;;;;;;;3.90;3.33;;;;;;;14.50;78.99;98228.09;4983685;28;20038;-85
2023/08/29 04:28:20;;;;;;;7.65;2.33;;;;;;;14.56;78.47;98218.06;4957046;28;20580;-85
2023/08/29 04:30:45;;;;;;;6.25;3.22;;;;;;;15.12;76.70;98240.34;4965820;28;20030;-85
2023/08/29 04:33:11;;;;;;;5.07;3.63;;;;;;;14.76;77.36;98223.16;4985413;28;20079;-85
2023/08/29 04:35:36;;;;;;;6.00;3.10;;;;;;;15.00;76.97;98231.94;5001414;28;20026;-85
2023/08/29 04:38:01;;;;;;;4.32;3.20;;;;;;;14.80;77.70;98233.06;4983662;28;20080;-85
2023/08/29 04:40:27;;;;;;;7.10;2.70;;;;;;;15.28;75.84;98217.53;4978469;28;20037;-85
2023/08/29 04:42:53;;;;;;;5.70;2.75;;;;;;;15.44;75.21;98240.41;4990647;28;20030;-85
2023/08/29 04:45:19;;;;;;;2.90;2.70;;;;;;;15.56;75.29;98226.50;4958298;28;20045;-84
2023/08/29 04:47:44;;;;;;;4.22;2.90;;;;;;;15.68;74.40;98235.69;4989342;28;20030;-85
2023/08/29 04:50:10;;;;;;;4.93;2.38;;;;;;;15.77;74.21;98243.09;4971118;28;20038;-85
2023/08/29 04:52:35;;;;;;;3.90;2.25;;;;;;;15.81;74.85;98242.22;4999380;28;20544;-84
2023/08/29 04:55:00;;;;;;;4.78;2.83;;;;;;;15.70;74.27;98238.09;4976498;28;20092;-85
2023/08/29 04:57:26;;;;;;;4.50;2.40;;;;;;;15.81;74.18;98261.03;4974222;28;20087;-84
2023/08/29 04:59:55;;;;;;;5.03;2.40;;;;;;;15.77;74.52;98238.47;4971844;28;20413;-84
2023/08/29 05:02:21;;;;;;;4.47;2.38;;;;;;;15.67;74.89;98241.38;4986773;28;20019;-84
2023/08/29 05:04:47;;;;;;;5.97;2.22;;;;;;;15.52;75.29;98242.44;4972343;28;20457;-84
2023/08/29 05:07:13;;;;;;;4.85;2.53;;;;;;;15.57;74.70;98225.41;4996133;28;20033;-85
2023/08/29 05:09:39;;;;;;;2.50;2.15;;;;;;;15.62;74.67;98238.75;4991662;28;20030;-84
2023/08/29 05:12:07;;;;;;;5.57;2.78;;;;;;;15.65;75.21;98254.31;4979559;28;20685;-84
2023/08/29 05:14:32;;;;;;;4.80;2.80;;;;;;;15.72;75.03;98257.44;4991140;28;20033;-84
2023/08/29 05:16:57;;;;;;;4.60;2.75;;;;;;;15.68;75.59;98256.44;4995695;28;20482;-84
2023/08/29 05:19:23;;;;;;;5.05;3.47;;;;;;;15.71;75.48;98256.63;4979024;28;20122;-84
2023/08/29 05:21:48;;;;;;;2.85;2.33;;;;;;;15.56;75.70;98226.50;5006044;28;20041;-84
2023/08/29 05:24:14;;;;;;;6.22;2.70;;;;;;;15.47;75.77;98223.69;4982268;28;20026;-85
2023/08/29 05:26:39;;;;;;;2.72;2.33;;;;;;;15.55;75.77;98236.44;4975223;28;20032;-84
2023/08/29 05:29:04;;;;;;;4.90;2.55;;;;;;;15.45;75.63;98208.94;5011687;28;20036;-84
2023/08/29 05:31:30;;;;;;;4.97;2.90;;;;;;;15.45;75.98;98238.50;4996262;28;20033;-84
2023/08/29 05:33:55;;;;;;;5.20;2.53;;;;;;;15.49;75.98;98234.94;4977359;28;20029;-84
2023/08/29 05:36:21;;;;;;;4.30;2.88;;;;;;;15.39;76.24;98207.41;4976120;28;20458;-84
2023/08/29 05:38:47;;;;;;;3.65;2.58;;;;;;;15.41;76.26;98227.53;4997167;28;20742;-84
2023/08/29 05:41:12;;;;;;;3.88;3.50;;;;;;;15.35;76.58;98217.16;4965024;28;20026;-84
2023/08/29 05:43:38;;;;;;;5.53;3.22;;;;;;;15.35;76.53;98238.66;4980081;28;20022;-84
2023/08/29 05:46:03;;;;;;;4.97;2.72;;;;;;;15.52;75.62;98225.50;4998152;28;20033;-85
2023/08/29 05:48:28;;;;;;;3.40;2.70;;;;;;;15.38;76.84;98236.19;5015867;28;20022;-84
2023/08/29 05:50:54;;;;;;;4.93;2.90;;;;;;;15.23;76.77;98249.06;4995825;28;20100;-85
2023/08/29 05:53:19;;;;;;;5.15;2.63;;;;;;;15.38;76.30;98228.09;4961001;28;20030;-84
2023/08/29 05:55:46;;;;;;;7.30;2.90;;;;;;;15.37;76.70;98234.59;4993184;28;20030;-84
2023/08/29 05:58:11;;;;;;;4.22;2.38;;;;;;;15.07;76.42;98183.97;5013052;28;20029;-85
2023/08/29 06:00:37;;;;;;;5.43;3.28;;;;;;;15.17;76.79;98207.22;4993675;28;20030;-84
2023/08/29 06:03:04;;;;;;;3.35;3.05;;;;;;;15.40;76.81;98231.28;4990073;28;20132;-84
2023/08/29 06:05:31;;;;;;;9.70;3.30;;;;;;;15.28;76.74;98214.84;5006428;28;20026;-84
2023/08/29 06:07:57;;;;;;;3.88;2.80;;;;;;;15.29;76.94;98213.72;4972597;28;20025;-84
2023/08/29 06:10:23;;;;;;;4.78;3.33;;;;;;;15.48;76.56;98229.88;5007197;28;20037;-85
2023/08/29 06:12:48;;;;;;;4.68;2.90;;;;;;;15.60;76.26;98228.31;4989823;28;20034;-84
2023/08/29 06:15:14;;;;;;;4.68;2.45;;;;;;;15.63;75.99;98219.66;4967379;28;20037;-84
2023/08/29 06:17:40;;;;;;;7.90;3.22;;;;;;;15.58;75.81;98211.66;4975933;28;20116;-85
2023/08/29 06:20:06;;;;;;;3.35;2.58;;;;;;;15.32;77.28;98215.84;4989562;28;20030;-84
2023/08/29 06:22:31;;;;;;;8.07;2.83;;;;;;;15.15;78.01;98195.97;4988849;28;20034;-84
2023/08/29 06:24:57;;;;;;;4.85;2.83;;;;;;;15.32;77.26;98198.91;5008302;28;20047;-84
2023/08/29 06:27:22;;;;;;;5.70;3.08;;;;;;;15.03;79.11;98217.91;4975521;28;20069;-84
2023/08/29 06:29:47;;;;;;;5.97;3.70;;;;;;;15.07;79.14;98220.84;4975418;28;20037;-84
2023/08/29 06:32:13;;;;;;;5.55;3.45;;;;;;;15.17;78.65;98216.09;4973683;28;20126;-85
2023/08/29 06:34:38;;;;;;;5.68;2.53;;;;;;;15.38;77.48;98203.91;4978017;28;20970;-85
2023/08/29 06:37:04;;;;;;;3.72;2.72;;;;;;;15.29;78.54;98205.66;4959645;28;20046;-84
2023/08/29 06:39:29;;;;;;;4.00;2.70;;;;;;;15.43;77.67;98211.94;4990344;28;20072;-85
2023/08/29 06:41:55;;;;;;;4.75;3.15;;;;;;;15.51;77.92;98219.31;4990350;28;20179;-85
2023/08/29 06:44:20;;;;;;;1.98;1.83;;;;;;;15.59;77.16;98213.28;4979083;28;20022;-85
2023/08/29 06:46:48;;;;;;;5.47;2.67;;;;;;;15.20;79.02;98207.41;4996871;28;20034;-85
2023/08/29 06:49:13;;;;;;;5.70;3.40;;;;;;;15.30;78.33;98188.44;4988299;28;20038;-85
2023/08/29 06:51:38;;;;;;;3.78;2.95;;;;;;;15.65;77.77;98225.53;4975052;28;20041;-85
2023/08/29 06:54:04;;;;;;;6.00;2.22;;;;;;;15.72;77.31;98222.44;4977799;28;20026;-85
2023/08/29 06:56:29;;;;;;;5.40;3.47;;;;;;;15.13;79.97;98220.47;4991787;28;20500;-85
2023/08/29 06:58:55;;;;;;;6.30;3.20;;;;;;;15.03;80.93;98224.09;4991582;28;20512;-85
2023/08/29 07:01:20;;;;;;;3.25;2.42;;;;;;;15.29;80.12;98226.41;4992114;28;20018;-84
2023/08/29 07:03:48;;;;;;;4.13;2.75;;;;;;;14.94;80.79;98198.16;4991019;28;20121;-85
2023/08/29 07:06:13;;;;;;;4.65;3.80;;;;;;;15.12;79.64;98224.22;4989540;28;20029;-85
2023/08/29 07:08:39;;;;;;;3.15;2.75;;;;;;;15.33;79.91;98235.47;4992540;28;20117;-84
2023/08/29 07:11:06;;;;;;;6.00;3.85;;;;;;;14.60;81.47;98224.47;4993025;28;20151;-85
2023/08/29 07:13:32;;;;;;;5.30;3.40;;;;;;;15.04;80.79;98232.97;4990787;28;20041;-85
2023/08/29 07:15:57;;;;;;;7.20;3.72;;;;;;;14.94;81.69;98233.91;4975969;28;20040;-85
2023/08/29 07:18:22;;;;;;;8.75;3.78;;;;;;;14.81;80.37;98231.94;4958737;28;20409;-85
2023/08/29 07:20:49;;;;;;;4.80;4.35;;;;;;;14.84;81.60;98222.50;4990920;28;20486;-85
2023/08/29 07:23:14;;;;;;;4.07;3.67;;;;;;;14.64;82.14;98242.41;4971712;28;20034;-87
2023/08/29 07:25:42;;;;;;;6.72;4.28;;;;;;;14.61;82.03;98245.66;4992948;28;20071;-87
2023/08/29 07:28:10;;;;;;;5.47;4.00;;;;;;;14.63;81.98;98256.94;5006361;28;20394;-87
2023/08/29 07:30:45;;;;;;;5.68;4.22;;;;;;;14.81;81.59;98264.19;4988754;28;20478;-87
2023/08/29 07:33:11;;;;;;;9.57;3.72;;;;;;;14.65;80.98;98195.66;4989059;28;20026;-87
2023/08/29 07:35:38;;;;;;;9.40;4.50;;;;;;;14.59;82.20;98249.75;4969725;28;20061;-87
2023/08/29 07:38:04;;;;;;;4.50;3.50;;;;;;;15.12;80.98;98266.44;4990789;28;20150;-87
2023/08/29 07:40:29;;;;;;;8.32;3.50;;;;;;;15.16;80.59;98251.34;4989878;28;20040;-87
2023/08/29 07:42:54;;;;;;;5.05;3.47;;;;;;;15.27;80.58;98258.13;5004540;28;20049;-87
2023/08/29 07:45:20;;;;;;;6.43;3.50;;;;;;;15.50;80.25;98263.44;4975979;28;20034;-87
2023/08/29 07:47:45;;;;;;;4.63;4.05;;;;;;;15.35;80.77;98268.25;4944602;28;20085;-87
2023/08/29 07:50:11;;;;;;;3.65;3.35;;;;;;;15.64;79.04;98260.78;4966841;28;20041;-87
2023/08/29 07:52:37;;;;;;;7.47;3.95;;;;;;;15.51;79.91;98281.16;4972920;28;20030;-87
2023/08/29 07:55:04;;;;;;;3.55;3.20;;;;;;;15.39;79.63;98229.72;4972578;28;20061;-86
2023/08/29 07:57:29;;;;;;;6.07;3.55;;;;;;;16.04;77.57;98276.22;4987814;28;20069;-87
2023/08/29 07:59:54;;;;;;;3.22;2.80;;;;;;;16.06;77.77;98274.03;4974729;28;20054;-87
2023/08/29 08:02:20;;;;;;;4.70;3.55;;;;;;;15.96;78.80;98301.13;4974711;28;20038;-84
2023/08/29 08:04:46;;;;;;;5.38;3.75;;;;;;;15.72;78.67;98289.72;4971949;28;20030;-87
2023/08/29 08:07:14;;;;;;;5.38;3.92;;;;;;;15.27;79.66;98277.75;4991471;28;20065;-86
2023/08/29 08:09:42;;;;;;;4.78;4.38;;;;;;;15.38;80.75;98298.03;4958724;28;20505;-86
2023/08/29 08:12:08;;;;;;;7.50;4.13;;;;;;;15.23;81.06;98302.81;4982432;28;20042;-86
2023/08/29 08:14:33;;;;;;;4.45;4.05;;;;;;;15.42;80.06;98276.75;4989756;28;20061;-87
2023/08/29 08:16:59;;;;;;;5.10;4.18;;;;;;;15.05;80.52;98242.59;4974156;28;20038;-87
2023/08/29 08:19:24;;;;;;;6.25;3.78;;;;;;;15.17;80.90;98302.13;4990714;28;20046;-87
2023/08/29 08:21:50;;;;;;;4.60;3.53;;;;;;;15.26;80.03;98296.88;4975599;28;20434;-86
2023/08/29 08:24:16;;;;;;;9.40;4.20;;;;;;;15.26;80.22;98280.75;4957611;28;20109;-87
2023/08/29 08:26:42;;;;;;;5.03;3.63;;;;;;;15.33;80.22;98292.72;4995841;28;20037;-86
2023/08/29 08:29:07;;;;;;;5.32;3.42;;;;;;;15.49;79.76;98314.84;4985916;28;20401;-87
2023/08/29 08:31:32;;;;;;;7.35;3.17;;;;;;;15.81;80.01;98314.06;4989986;28;20116;-87
2023/08/29 08:33:58;;;;;;;4.25;2.65;;;;;;;15.95;78.50;98304.91;4974759;28;20030;-87
2023/08/29 08:36:23;;;;;;;3.65;2.83;;;;;;;16.38;77.11;98308.94;4989746;28;20512;-87
2023/08/29 08:38:49;;;;;;;4.22;3.60;;;;;;;16.18;77.55;98311.25;4979484;28;20048;-87
2023/08/29 08:41:17;;;;;;;4.07;3.58;;;;;;;16.04;77.51;98307.72;4989457;28;20053;-85
2023/08/29 08:43:43;;;;;;;5.95;4.00;;;;;;;16.06;77.38;98286.69;4958718;28;20488;-86
2023/08/29 08:46:09;;;;;;;5.25;3.38;;;;;;;16.73;75.81;98312.09;4971836;28;20026;-86
2023/08/29 08:48:37;;;;;;;6.00;3.40;;;;;;;16.65;75.57;98305.50;4974508;28;20532;-86
2023/08/29 08:51:04;;;;;;;6.88;2.90;;;;;;;16.95;74.72;98325.63;4985873;28;20034;-86
2023/08/29 08:53:30;;;;;;;5.15;3.80;;;;;;;16.48;76.47;98307.97;4980877;28;20470;-87
2023/08/29 08:55:56;;;;;;;4.93;3.38;;;;;;;16.59;76.81;98330.94;4981253;28;20872;-86
2023/08/29 08:58:22;;;;;;;2.88;2.25;;;;;;;17.03;74.49;98306.84;4989554;28;20030;-86
2023/08/29 09:00:47;;;;;;;2.90;2.05;;;;;;;17.08;73.80;98311.34;4967456;28;20034;-86
2023/08/29 09:03:15;;;;;;;4.15;2.95;;;;;;;17.11;73.67;98313.41;4968011;28;20052;-86
2023/08/29 09:05:42;;;;;;;3.28;2.65;;;;;;;17.13;74.18;98317.41;4985793;28;20029;-86
2023/08/29 09:08:07;;;;;;;6.63;3.58;;;;;;;16.99;74.42;98313.91;4967959;28;20034;-86
2023/08/29 09:10:38;;;;;;;6.22;3.38;;;;;;;16.72;75.42;98311.28;5001133;28;20037;-86
2023/08/29 09:13:03;;;;;;;6.50;3.10;;;;;;;16.84;74.96;98310.78;4971955;28;20398;-86
2023/08/29 09:15:29;;;;;;;2.25;2.05;;;;;;;17.17;74.57;98314.88;4981969;28;20032;-86
2023/08/29 09:17:54;;;;;;;4.28;2.72;;;;;;;16.87;74.74;98294.78;4974749;28;20041;-86
2023/08/29 09:20:22;;;;;;;3.67;3.22;;;;;;;16.81;74.92;98303.28;5005786;28;20409;-85
2023/08/29 09:22:48;;;;;;;8.55;3.50;;;;;;;17.28;73.56;98318.94;5005905;28;20088;-86
2023/08/29 09:25:14;;;;;;;9.07;3.05;;;;;;;17.37;73.14;98322.53;4992059;28;20038;-86
2023/08/29 09:27:47;;;;;;;5.30;3.00;;;;;;;16.93;74.72;98319.72;4989128;28;20088;-86
2023/08/29 09:30:14;;;;;;;5.80;3.40;;;;;;;17.39;72.58;98314.91;5008675;28;20033;-86
2023/08/29 09:32:42;;;;;;;4.85;3.25;;;;;;;17.16;73.43;98313.31;4985358;28;20600;-86
2023/08/29 09:35:10;;;;;;;5.43;2.90;;;;;;;17.37;73.23;98302.81;4976123;28;20402;-86
2023/08/29 09:37:41;;;;;;;4.95;3.53;;;;;;;17.00;73.78;98322.81;4992572;28;20064;-86
2023/08/29 09:40:07;;;;;;;5.03;3.05;;;;;;;17.08;74.02;98314.03;4984105;28;20470;-86
2023/08/29 09:42:32;;;;;;;6.38;3.28;;;;;;;16.94;74.31;98322.13;4959088;28;20901;-86
2023/08/29 09:44:58;;;;;;;5.75;3.90;;;;;;;16.71;75.33;98312.38;5003364;28;20079;-86
2023/08/29 09:47:26;;;;;;;4.93;3.42;;;;;;;16.86;74.64;98314.75;5000685;28;20119;-86
2023/08/29 09:49:51;;;;;;;4.85;3.60;;;;;;;17.01;74.13;98305.56;4969057;28;20036;-86
2023/08/29 09:52:18;;;;;;;9.95;4.00;;;;;;;16.89;74.95;98316.03;4971598;28;21875;-86
2023/08/29 09:54:51;;;;;;;3.47;2.90;;;;;;;17.02;74.61;98299.84;4992759;28;20018;-87
2023/08/29 09:57:19;;;;;;;9.05;4.57;;;;;;;16.64;74.87;98313.88;4971916;28;20037;-86
2023/08/29 09:59:45;;;;;;;5.10;3.78;;;;;;;16.94;74.34;98310.56;5006036;28;20034;-86
2023/08/29 10:02:12;;;;;;;5.85;3.60;;;;;;;17.06;73.97;98314.31;5010679;28;20433;-86
2023/08/29 10:04:45;;;;;;;9.10;3.80;;;;;;;17.13;74.48;98295.03;4997809;28;20026;-86
2023/08/29 10:07:14;;;;;;;5.28;3.00;;;;;;;16.71;74.50;98298.13;4987523;28;20061;-86
2023/08/29 10:09:42;;;;;;;5.82;3.08;;;;;;;16.93;73.36;98295.47;4992192;28;20046;-85
2023/08/29 10:12:08;;;;;;;7.57;3.25;;;;;;;16.98;74.47;98276.50;4972103;28;20026;-86
2023/08/29 10:14:34;;;;;;;4.35;2.70;;;;;;;17.37;73.76;98297.44;4974275;28;20040;-86
2023/08/29 10:17:01;;;;;;;3.22;2.92;;;;;;;17.51;73.15;98292.81;5006564;28;20030;-86
2023/08/29 10:19:29;;;;;;;4.63;2.67;;;;;;;17.72;72.99;98296.63;4993658;28;20092;-86
2023/08/29 10:21:54;;;;;;;4.07;3.08;;;;;;;17.20;72.78;98281.91;4995756;28;20083;-86
2023/08/29 10:24:21;;;;;;;3.45;3.10;;;;;;;17.11;73.91;98289.94;5011922;28;20029;-85
2023/08/29 10:26:49;;;;;;;4.60;1.85;;;;;;;17.98;71.92;98298.38;5001045;28;20522;-86
2023/08/29 10:29:15;;;;;;;4.93;2.55;;;;;;;18.09;71.38;98285.38;5009039;28;20047;-87
2023/08/29 10:31:42;;;;;;;6.68;2.65;;;;;;;18.20;71.52;98289.41;4975503;28;20030;-86
2023/08/29 10:34:07;;;;;;;4.32;2.92;;;;;;;17.98;70.59;98276.75;4977246;28;20394;-86
2023/08/29 10:36:32;;;;;;;4.75;2.05;;;;;;;18.64;71.19;98293.91;4994685;28;20045;-86
2023/08/29 10:38:59;;;;;;;3.88;1.80;;;;;;;18.58;69.92;98281.66;5003648;28;20036;-86
2023/08/29 10:41:24;;;;;;;3.10;1.95;;;;;;;18.31;67.74;98293.44;4974889;28;20022;-86
2023/08/29 10:43:53;;;;;;;5.97;2.50;;;;;;;17.80;69.69;98280.47;5008470;28;20399;-85
2023/08/29 10:46:20;;;;;;;6.22;3.25;;;;;;;18.63;69.49;98284.22;5010963;28;20482;-86
2023/08/29 10:48:46;;;;;;;2.33;2.13;;;;;;;18.38;69.20;98279.47;4972277;28;20033;-86
2023/08/29 10:51:25;;;;;;;3.85;2.42;;;;;;;18.09;69.15;98284.59;4993876;28;20101;-85
2023/08/29 10:53:51;;;;;;;3.92;2.15;;;;;;;19.11;68.59;98276.78;4995135;28;20367;-85
2023/08/29 10:56:18;;;;;;;5.47;2.10;;;;;;;18.29;66.83;98252.44;5013003;28;20076;-85
2023/08/29 10:58:45;;;;;;;2.88;2.05;;;;;;;18.84;67.13;98274.38;4994878;28;20041;-86
2023/08/29 11:01:36;;;;;;;4.15;1.70;;;;;;;19.12;66.18;98270.28;4976229;28;20030;-86
2023/08/29 11:04:12;;;;;;;5.78;1.90;;;;;;;18.90;67.65;98253.38;4991997;28;20099;-86
2023/08/29 11:06:53;;;;;;;2.60;1.95;;;;;;;19.14;67.96;98265.34;4990011;28;20028;-86
2023/08/29 11:09:20;;;;;;;4.75;2.13;;;;;;;19.03;66.05;98252.44;5005513;28;20034;-85
2023/08/29 11:12:05;;;;;;;3.08;1.50;;;;;;;18.82;65.79;98260.38;4992862;28;20398;-86
2023/08/29 11:14:52;;;;;;;4.22;1.80;;;;;;;18.35;65.54;98261.97;5006952;28;20026;-86
2023/08/29 11:17:24;;;;;;;2.67;2.47;;;;;;;17.77;66.94;98256.00;5013486;28;20022;-86
2023/08/29 11:19:55;;;;;;;2.10;1.90;;;;;;;17.78;67.56;98217.88;4996452;28;20449;-85
2023/08/29 11:22:26;;;;;;;3.08;1.80;;;;;;;18.12;67.12;98235.34;4994513;28;20038;-86
2023/08/29 11:24:55;;;;;;;2.78;1.75;;;;;;;19.10;66.71;98245.47;4989236;28;20053;-86
2023/08/29 11:27:37;;;;;;;1.25;1.10;;;;;;;19.71;64.67;98235.38;5013672;28;20026;-86
2023/08/29 11:30:03;;;;;;;1.90;1.67;;;;;;;19.66;65.32;98222.03;5011997;28;20064;-85
2023/08/29 11:32:28;;;;;;;4.38;1.60;;;;;;;18.58;64.07;98246.50;4957322;28;20054;-85